sensor_id;sensor_type;location;lat;lon;timestamp;temperature;humidity
61807;DHT22;47726;52.766;6.606;2023-04-15T00:02:17;9.20;99.90
61807;DHT22;47726;52.766;6.606;2023-04-15T00:04:44;9.20;99.90
61807;DHT22;47726;52.766;6.606;2023-04-15T00:07:10;9.10;99.90
61807;DHT22;47726;52.766;6.606;2023-04-15T00:09:35;9.10;99.90
61807;DHT22;47726;52.766;6.606;2023-04-15T00:12:01;9.10;99.90
61807;DHT22;47726;52.766;6.606;2023-04-15T00:14:27;9.00;99.90
61807;DHT22;47726;52.766;6.606;2023-04-15T00:16:52;9.00;99.90
61807;DHT22;47726;52.766;6.606;2023-04-15T00:19:20;8.90;99.90
61807;DHT22;47726;52.766;6.606;2023-04-15T00:21:46;8.80;99.90
61807;DHT22;47726;52.766;6.606;2023-04-15T00:24:11;8.80;99.90
61807;DHT22;47726;52.766;6.606;2023-04-15T00:26:38;8.70;99.90
61807;DHT22;47726;52.766;6.606;2023-04-15T00:29:03;8.70;99.90
61807;DHT22;47726;52.766;6.606;2023-04-15T00:31:30;8.70;99.90
61807;DHT22;47726;52.766;6.606;2023-04-15T00:33:55;8.60;99.90
61807;DHT22;47726;52.766;6.606;2023-04-15T00:36:21;8.60;99.90
61807;DHT22;47726;52.766;6.606;2023-04-15T00:38:47;8.50;99.90
61807;DHT22;47726;52.766;6.606;2023-04-15T00:41:13;8.60;99.90
61807;DHT22;47726;52.766;6.606;2023-04-15T00:43:39;8.60;99.90
61807;DHT22;47726;52.766;6.606;2023-04-15T00:46:05;8.50;99.90
61807;DHT22;47726;52.766;6.606;2023-04-15T00:48:32;8.60;99.90
61807;DHT22;47726;52.766;6.606;2023-04-15T00:50:57;8.50;99.90
61807;DHT22;47726;52.766;6.606;2023-04-15T00:53:23;8.50;99.90
61807;DHT22;47726;52.766;6.606;2023-04-15T00:55:49;8.50;99.90
61807;DHT22;47726;52.766;6.606;2023-04-15T00:58:16;8.40;99.90
61807;DHT22;47726;52.766;6.606;2023-04-15T01:00:42;8.30;99.90
61807;DHT22;47726;52.766;6.606;2023-04-15T01:03:08;8.30;99.90
61807;DHT22;47726;52.766;6.606;2023-04-15T01:05:34;8.30;99.90
61807;DHT22;47726;52.766;6.606;2023-04-15T01:08:01;8.20;99.90
61807;DHT22;47726;52.766;6.606;2023-04-15T01:10:26;8.20;99.90
61807;DHT22;47726;52.766;6.606;2023-04-15T01:12:52;8.10;99.90
61807;DHT22;47726;52.766;6.606;2023-04-15T01:15:19;8.10;99.90
61807;DHT22;47726;52.766;6.606;2023-04-15T01:17:45;8.10;99.90
61807;DHT22;47726;52.766;6.606;2023-04-15T01:20:12;8.00;99.90
61807;DHT22;47726;52.766;6.606;2023-04-15T01:22:37;8.00;99.90
61807;DHT22;47726;52.766;6.606;2023-04-15T01:25:11;8.00;99.90
61807;DHT22;47726;52.766;6.606;2023-04-15T01:27:38;8.00;99.90
61807;DHT22;47726;52.766;6.606;2023-04-15T01:30:07;8.00;99.90
61807;DHT22;47726;52.766;6.606;2023-04-15T01:32:33;8.00;99.90
61807;DHT22;47726;52.766;6.606;2023-04-15T01:34:58;8.00;99.90
61807;DHT22;47726;52.766;6.606;2023-04-15T01:37:24;8.00;99.90
61807;DHT22;47726;52.766;6.606;2023-04-15T01:39:50;7.90;99.90
61807;DHT22;47726;52.766;6.606;2023-04-15T01:42:16;7.80;99.90
61807;DHT22;47726;52.766;6.606;2023-04-15T01:44:41;7.80;99.90
61807;DHT22;47726;52.766;6.606;2023-04-15T01:47:07;7.80;99.90
61807;DHT22;47726;52.766;6.606;2023-04-15T01:49:33;7.70;99.90
61807;DHT22;47726;52.766;6.606;2023-04-15T01:51:59;7.70;99.90
61807;DHT22;47726;52.766;6.606;2023-04-15T01:54:25;7.70;99.90
61807;DHT22;47726;52.766;6.606;2023-04-15T01:56:52;7.70;99.90
61807;DHT22;47726;52.766;6.606;2023-04-15T01:59:17;7.70;99.90
61807;DHT22;47726;52.766;6.606;2023-04-15T02:01:43;7.70;99.90
61807;DHT22;47726;52.766;6.606;2023-04-15T02:04:10;7.60;99.90
61807;DHT22;47726;52.766;6.606;2023-04-15T02:06:41;7.60;99.90
61807;DHT22;47726;52.766;6.606;2023-04-15T02:09:08;7.60;99.90
61807;DHT22;47726;52.766;6.606;2023-04-15T02:11:34;7.50;99.90
61807;DHT22;47726;52.766;6.606;2023-04-15T02:14:02;7.60;99.90
61807;DHT22;47726;52.766;6.606;2023-04-15T02:16:29;7.50;99.90
61807;DHT22;47726;52.766;6.606;2023-04-15T02:18:54;7.50;99.90
61807;DHT22;47726;52.766;6.606;2023-04-15T02:21:20;7.50;99.90
61807;DHT22;47726;52.766;6.606;2023-04-15T02:23:47;7.50;99.90
61807;DHT22;47726;52.766;6.606;2023-04-15T02:26:13;7.50;99.90
61807;DHT22;47726;52.766;6.606;2023-04-15T02:28:38;7.50;99.90
61807;DHT22;47726;52.766;6.606;2023-04-15T02:31:05;7.40;99.90
61807;DHT22;47726;52.766;6.606;2023-04-15T02:33:31;7.40;99.90
61807;DHT22;47726;52.766;6.606;2023-04-15T02:35:56;7.40;99.90
61807;DHT22;47726;52.766;6.606;2023-04-15T02:38:23;7.40;99.90
61807;DHT22;47726;52.766;6.606;2023-04-15T02:40:49;7.40;99.90
61807;DHT22;47726;52.766;6.606;2023-04-15T02:43:15;7.40;99.90
61807;DHT22;47726;52.766;6.606;2023-04-15T02:45:42;7.20;99.90
61807;DHT22;47726;52.766;6.606;2023-04-15T02:48:08;7.20;99.90
61807;DHT22;47726;52.766;6.606;2023-04-15T02:50:34;7.20;99.90
61807;DHT22;47726;52.766;6.606;2023-04-15T02:53:00;7.20;99.90
61807;DHT22;47726;52.766;6.606;2023-04-15T02:55:27;7.10;99.90
61807;DHT22;47726;52.766;6.606;2023-04-15T02:57:53;7.10;99.90
61807;DHT22;47726;52.766;6.606;2023-04-15T03:00:18;7.10;99.90
61807;DHT22;47726;52.766;6.606;2023-04-15T03:02:45;7.10;99.90
61807;DHT22;47726;52.766;6.606;2023-04-15T03:05:12;7.00;99.90
61807;DHT22;47726;52.766;6.606;2023-04-15T03:07:38;7.00;99.90
61807;DHT22;47726;52.766;6.606;2023-04-15T03:10:06;7.00;99.90
61807;DHT22;47726;52.766;6.606;2023-04-15T03:12:32;7.00;99.90
61807;DHT22;47726;52.766;6.606;2023-04-15T03:14:57;7.00;99.90
61807;DHT22;47726;52.766;6.606;2023-04-15T03:17:24;7.00;99.90
61807;DHT22;47726;52.766;6.606;2023-04-15T03:19:50;6.90;99.90
61807;DHT22;47726;52.766;6.606;2023-04-15T03:22:15;6.80;99.90
61807;DHT22;47726;52.766;6.606;2023-04-15T03:24:41;6.80;99.90
61807;DHT22;47726;52.766;6.606;2023-04-15T03:27:06;6.80;99.90
61807;DHT22;47726;52.766;6.606;2023-04-15T03:29:32;6.70;99.90
61807;DHT22;47726;52.766;6.606;2023-04-15T03:31:58;6.70;99.90
61807;DHT22;47726;52.766;6.606;2023-04-15T03:34:23;6.70;99.90
61807;DHT22;47726;52.766;6.606;2023-04-15T03:36:49;6.70;99.90
61807;DHT22;47726;52.766;6.606;2023-04-15T03:39:15;6.70;99.90
61807;DHT22;47726;52.766;6.606;2023-04-15T03:41:40;6.70;99.90
61807;DHT22;47726;52.766;6.606;2023-04-15T03:44:06;6.70;99.90
61807;DHT22;47726;52.766;6.606;2023-04-15T03:46:32;6.60;99.90
61807;DHT22;47726;52.766;6.606;2023-04-15T03:48:57;6.60;99.90
61807;DHT22;47726;52.766;6.606;2023-04-15T03:51:23;6.50;99.90
61807;DHT22;47726;52.766;6.606;2023-04-15T03:53:49;6.40;99.90
61807;DHT22;47726;52.766;6.606;2023-04-15T03:56:14;6.30;99.90
61807;DHT22;47726;52.766;6.606;2023-04-15T03:58:40;6.30;99.90
61807;DHT22;47726;52.766;6.606;2023-04-15T04:01:05;6.20;99.90
61807;DHT22;47726;52.766;6.606;2023-04-15T04:03:31;6.20;99.90
61807;DHT22;47726;52.766;6.606;2023-04-15T04:05:57;6.20;99.90
61807;DHT22;47726;52.766;6.606;2023-04-15T04:08:23;6.20;99.90
61807;DHT22;47726;52.766;6.606;2023-04-15T04:10:48;6.10;99.90
61807;DHT22;47726;52.766;6.606;2023-04-15T04:13:14;6.10;99.90
61807;DHT22;47726;52.766;6.606;2023-04-15T04:15:40;6.10;99.90
61807;DHT22;47726;52.766;6.606;2023-04-15T04:18:05;6.00;99.90
61807;DHT22;47726;52.766;6.606;2023-04-15T04:20:32;6.00;99.90
61807;DHT22;47726;52.766;6.606;2023-04-15T04:22:57;6.00;99.90
61807;DHT22;47726;52.766;6.606;2023-04-15T04:25:23;6.10;99.90
61807;DHT22;47726;52.766;6.606;2023-04-15T04:27:49;6.00;99.90
61807;DHT22;47726;52.766;6.606;2023-04-15T04:30:14;6.00;99.90
61807;DHT22;47726;52.766;6.606;2023-04-15T04:32:40;6.00;99.90
61807;DHT22;47726;52.766;6.606;2023-04-15T04:35:06;6.00;99.90
61807;DHT22;47726;52.766;6.606;2023-04-15T04:37:31;6.00;99.90
61807;DHT22;47726;52.766;6.606;2023-04-15T04:39:57;5.90;99.90
61807;DHT22;47726;52.766;6.606;2023-04-15T04:42:23;5.90;99.90
61807;DHT22;47726;52.766;6.606;2023-04-15T04:44:48;5.90;99.90
61807;DHT22;47726;52.766;6.606;2023-04-15T04:47:14;5.90;99.90
61807;DHT22;47726;52.766;6.606;2023-04-15T04:49:39;5.90;99.90
61807;DHT22;47726;52.766;6.606;2023-04-15T04:52:05;5.90;99.90
61807;DHT22;47726;52.766;6.606;2023-04-15T04:54:31;5.90;99.90
61807;DHT22;47726;52.766;6.606;2023-04-15T04:56:57;5.90;99.90
61807;DHT22;47726;52.766;6.606;2023-04-15T04:59:23;6.00;99.90
61807;DHT22;47726;52.766;6.606;2023-04-15T05:01:49;6.00;99.90
61807;DHT22;47726;52.766;6.606;2023-04-15T05:04:14;6.00;99.90
61807;DHT22;47726;52.766;6.606;2023-04-15T05:06:40;6.00;99.90
61807;DHT22;47726;52.766;6.606;2023-04-15T05:09:06;6.00;99.90
61807;DHT22;47726;52.766;6.606;2023-04-15T05:11:32;6.00;99.90
61807;DHT22;47726;52.766;6.606;2023-04-15T05:13:57;6.00;99.90
61807;DHT22;47726;52.766;6.606;2023-04-15T05:16:25;6.00;99.90
61807;DHT22;47726;52.766;6.606;2023-04-15T05:18:51;6.00;99.90
61807;DHT22;47726;52.766;6.606;2023-04-15T05:21:17;5.90;99.90
61807;DHT22;47726;52.766;6.606;2023-04-15T05:23:42;5.90;99.90
61807;DHT22;47726;52.766;6.606;2023-04-15T05:26:08;5.90;99.90
61807;DHT22;47726;52.766;6.606;2023-04-15T05:28:34;5.90;99.90
61807;DHT22;47726;52.766;6.606;2023-04-15T05:30:59;6.00;99.90
61807;DHT22;47726;52.766;6.606;2023-04-15T05:33:25;6.00;99.90
61807;DHT22;47726;52.766;6.606;2023-04-15T05:35:51;6.10;99.90
61807;DHT22;47726;52.766;6.606;2023-04-15T05:38:17;6.20;99.90
61807;DHT22;47726;52.766;6.606;2023-04-15T05:40:43;6.20;99.90
61807;DHT22;47726;52.766;6.606;2023-04-15T05:43:08;6.20;99.90
61807;DHT22;47726;52.766;6.606;2023-04-15T05:45:34;6.20;99.90
61807;DHT22;47726;52.766;6.606;2023-04-15T05:47:59;6.30;99.90
61807;DHT22;47726;52.766;6.606;2023-04-15T05:50:25;6.30;99.90
61807;DHT22;47726;52.766;6.606;2023-04-15T05:52:50;6.40;99.90
61807;DHT22;47726;52.766;6.606;2023-04-15T05:55:16;6.40;99.90
61807;DHT22;47726;52.766;6.606;2023-04-15T05:57:41;6.50;99.90
61807;DHT22;47726;52.766;6.606;2023-04-15T06:00:07;6.50;99.90
61807;DHT22;47726;52.766;6.606;2023-04-15T06:02:33;6.50;99.90
61807;DHT22;47726;52.766;6.606;2023-04-15T06:04:59;6.60;99.90
61807;DHT22;47726;52.766;6.606;2023-04-15T06:07:25;6.60;99.90
61807;DHT22;47726;52.766;6.606;2023-04-15T06:09:50;6.70;99.90
61807;DHT22;47726;52.766;6.606;2023-04-15T06:12:16;6.70;99.90
61807;DHT22;47726;52.766;6.606;2023-04-15T06:14:42;6.70;99.90
61807;DHT22;47726;52.766;6.606;2023-04-15T06:17:07;6.80;99.90
61807;DHT22;47726;52.766;6.606;2023-04-15T06:19:34;6.80;99.90
61807;DHT22;47726;52.766;6.606;2023-04-15T06:22:00;6.80;99.90
61807;DHT22;47726;52.766;6.606;2023-04-15T06:24:26;6.80;99.90
61807;DHT22;47726;52.766;6.606;2023-04-15T06:26:52;6.90;99.90
61807;DHT22;47726;52.766;6.606;2023-04-15T06:29:18;6.90;99.90
61807;DHT22;47726;52.766;6.606;2023-04-15T06:31:43;7.00;99.90
61807;DHT22;47726;52.766;6.606;2023-04-15T06:34:09;7.00;99.90
61807;DHT22;47726;52.766;6.606;2023-04-15T06:36:35;7.10;99.90
61807;DHT22;47726;52.766;6.606;2023-04-15T06:39:01;7.20;99.90
61807;DHT22;47726;52.766;6.606;2023-04-15T06:41:26;7.20;99.90
61807;DHT22;47726;52.766;6.606;2023-04-15T06:43:52;7.30;99.90
61807;DHT22;47726;52.766;6.606;2023-04-15T06:46:18;7.30;99.90
61807;DHT22;47726;52.766;6.606;2023-04-15T06:48:44;7.30;99.90
61807;DHT22;47726;52.766;6.606;2023-04-15T06:51:10;7.40;99.90
61807;DHT22;47726;52.766;6.606;2023-04-15T06:53:36;7.40;99.90
61807;DHT22;47726;52.766;6.606;2023-04-15T06:56:06;7.50;99.90
61807;DHT22;47726;52.766;6.606;2023-04-15T06:58:32;7.50;99.90
61807;DHT22;47726;52.766;6.606;2023-04-15T07:00:58;7.60;99.90
61807;DHT22;47726;52.766;6.606;2023-04-15T07:03:23;7.60;99.90
61807;DHT22;47726;52.766;6.606;2023-04-15T07:05:49;7.70;99.90
61807;DHT22;47726;52.766;6.606;2023-04-15T07:08:15;7.70;99.90
61807;DHT22;47726;52.766;6.606;2023-04-15T07:10:40;7.80;99.90
61807;DHT22;47726;52.766;6.606;2023-04-15T07:13:06;7.80;99.90
61807;DHT22;47726;52.766;6.606;2023-04-15T07:15:33;7.90;99.90
61807;DHT22;47726;52.766;6.606;2023-04-15T07:17:58;7.90;99.90
61807;DHT22;47726;52.766;6.606;2023-04-15T07:20:24;8.00;99.90
61807;DHT22;47726;52.766;6.606;2023-04-15T07:22:50;8.10;99.90
61807;DHT22;47726;52.766;6.606;2023-04-15T07:25:16;8.20;99.90
61807;DHT22;47726;52.766;6.606;2023-04-15T07:27:42;8.20;99.90
61807;DHT22;47726;52.766;6.606;2023-04-15T07:30:08;8.20;99.90
61807;DHT22;47726;52.766;6.606;2023-04-15T07:32:34;8.30;99.90
61807;DHT22;47726;52.766;6.606;2023-04-15T07:35:00;8.30;99.90
61807;DHT22;47726;52.766;6.606;2023-04-15T07:37:26;8.30;99.90
61807;DHT22;47726;52.766;6.606;2023-04-15T07:39:52;8.40;99.90
61807;DHT22;47726;52.766;6.606;2023-04-15T07:42:18;8.40;99.90
61807;DHT22;47726;52.766;6.606;2023-04-15T07:44:44;8.50;99.90
61807;DHT22;47726;52.766;6.606;2023-04-15T07:47:09;8.50;99.90
61807;DHT22;47726;52.766;6.606;2023-04-15T07:49:36;8.60;99.90
61807;DHT22;47726;52.766;6.606;2023-04-15T07:52:01;8.60;99.90
61807;DHT22;47726;52.766;6.606;2023-04-15T07:54:28;8.60;99.90
61807;DHT22;47726;52.766;6.606;2023-04-15T07:56:53;8.60;99.90
61807;DHT22;47726;52.766;6.606;2023-04-15T07:59:20;8.70;99.90
61807;DHT22;47726;52.766;6.606;2023-04-15T08:01:45;8.70;99.90
61807;DHT22;47726;52.766;6.606;2023-04-15T08:04:11;8.80;99.90
61807;DHT22;47726;52.766;6.606;2023-04-15T08:06:37;8.80;99.90
61807;DHT22;47726;52.766;6.606;2023-04-15T08:09:04;8.90;99.90
61807;DHT22;47726;52.766;6.606;2023-04-15T08:11:30;9.00;99.90
61807;DHT22;47726;52.766;6.606;2023-04-15T08:13:56;9.10;99.90
61807;DHT22;47726;52.766;6.606;2023-04-15T08:16:23;9.10;99.90
61807;DHT22;47726;52.766;6.606;2023-04-15T08:18:50;9.20;99.90
61807;DHT22;47726;52.766;6.606;2023-04-15T08:21:17;9.20;99.90
61807;DHT22;47726;52.766;6.606;2023-04-15T08:23:44;9.30;99.90
61807;DHT22;47726;52.766;6.606;2023-04-15T08:26:10;9.30;99.90
61807;DHT22;47726;52.766;6.606;2023-04-15T08:28:38;9.40;99.90
61807;DHT22;47726;52.766;6.606;2023-04-15T08:31:04;9.50;99.90
61807;DHT22;47726;52.766;6.606;2023-04-15T08:33:29;9.50;99.90
61807;DHT22;47726;52.766;6.606;2023-04-15T08:35:55;9.60;99.90
61807;DHT22;47726;52.766;6.606;2023-04-15T08:38:21;9.60;99.90
61807;DHT22;47726;52.766;6.606;2023-04-15T08:40:47;9.60;99.90
61807;DHT22;47726;52.766;6.606;2023-04-15T08:43:20;9.70;99.90
61807;DHT22;47726;52.766;6.606;2023-04-15T08:45:47;9.70;99.90
61807;DHT22;47726;52.766;6.606;2023-04-15T08:48:16;9.70;99.90
61807;DHT22;47726;52.766;6.606;2023-04-15T08:50:42;9.70;99.90
61807;DHT22;47726;52.766;6.606;2023-04-15T08:53:09;9.70;99.90
61807;DHT22;47726;52.766;6.606;2023-04-15T08:55:41;9.70;99.90
61807;DHT22;47726;52.766;6.606;2023-04-15T08:58:08;9.70;99.90
61807;DHT22;47726;52.766;6.606;2023-04-15T09:00:34;9.70;99.90
61807;DHT22;47726;52.766;6.606;2023-04-15T09:03:00;9.70;99.90
61807;DHT22;47726;52.766;6.606;2023-04-15T09:05:26;9.70;99.90
61807;DHT22;47726;52.766;6.606;2023-04-15T09:07:51;9.80;99.90
61807;DHT22;47726;52.766;6.606;2023-04-15T09:10:17;9.80;99.90
61807;DHT22;47726;52.766;6.606;2023-04-15T09:12:43;9.80;99.90
61807;DHT22;47726;52.766;6.606;2023-04-15T09:15:10;9.90;99.90
61807;DHT22;47726;52.766;6.606;2023-04-15T09:17:42;9.90;99.90
61807;DHT22;47726;52.766;6.606;2023-04-15T09:20:09;9.90;99.90
61807;DHT22;47726;52.766;6.606;2023-04-15T09:22:36;9.90;99.90
61807;DHT22;47726;52.766;6.606;2023-04-15T09:25:25;9.90;99.90
61807;DHT22;47726;52.766;6.606;2023-04-15T09:27:59;10.00;99.90
61807;DHT22;47726;52.766;6.606;2023-04-15T09:30:27;10.00;99.90
61807;DHT22;47726;52.766;6.606;2023-04-15T09:33:00;10.00;99.90
61807;DHT22;47726;52.766;6.606;2023-04-15T09:35:27;10.00;99.90
61807;DHT22;47726;52.766;6.606;2023-04-15T09:38:01;10.00;99.90
61807;DHT22;47726;52.766;6.606;2023-04-15T09:40:38;10.00;99.90
61807;DHT22;47726;52.766;6.606;2023-04-15T09:43:04;10.00;99.90
61807;DHT22;47726;52.766;6.606;2023-04-15T09:45:31;10.00;99.90
61807;DHT22;47726;52.766;6.606;2023-04-15T09:47:58;10.10;99.90
61807;DHT22;47726;52.766;6.606;2023-04-15T09:50:27;10.10;99.90
61807;DHT22;47726;52.766;6.606;2023-04-15T09:52:54;10.10;99.90
61807;DHT22;47726;52.766;6.606;2023-04-15T09:55:19;10.10;99.90
61807;DHT22;47726;52.766;6.606;2023-04-15T09:57:45;10.10;99.90
61807;DHT22;47726;52.766;6.606;2023-04-15T10:00:14;10.10;99.90
61807;DHT22;47726;52.766;6.606;2023-04-15T10:02:41;10.10;99.90
61807;DHT22;47726;52.766;6.606;2023-04-15T10:05:10;10.10;99.90
61807;DHT22;47726;52.766;6.606;2023-04-15T10:07:38;10.10;99.90
61807;DHT22;47726;52.766;6.606;2023-04-15T10:10:06;10.20;99.90
61807;DHT22;47726;52.766;6.606;2023-04-15T10:12:32;10.20;99.90
61807;DHT22;47726;52.766;6.606;2023-04-15T10:15:04;10.20;99.90
61807;DHT22;47726;52.766;6.606;2023-04-15T10:17:32;10.20;99.90
61807;DHT22;47726;52.766;6.606;2023-04-15T10:20:03;10.20;99.90
61807;DHT22;47726;52.766;6.606;2023-04-15T10:22:29;10.30;99.90
61807;DHT22;47726;52.766;6.606;2023-04-15T10:24:55;10.30;99.90
61807;DHT22;47726;52.766;6.606;2023-04-15T10:27:22;10.30;99.90
61807;DHT22;47726;52.766;6.606;2023-04-15T10:29:50;10.30;99.90
61807;DHT22;47726;52.766;6.606;2023-04-15T10:32:18;10.30;99.90
61807;DHT22;47726;52.766;6.606;2023-04-15T10:34:46;10.30;99.90
61807;DHT22;47726;52.766;6.606;2023-04-15T10:37:12;10.40;99.90
61807;DHT22;47726;52.766;6.606;2023-04-15T10:42:17;10.40;99.90
61807;DHT22;47726;52.766;6.606;2023-04-15T10:44:50;10.40;99.90
61807;DHT22;47726;52.766;6.606;2023-04-15T10:47:18;10.40;99.90
61807;DHT22;47726;52.766;6.606;2023-04-15T10:49:58;10.40;99.90
61807;DHT22;47726;52.766;6.606;2023-04-15T10:52:26;10.50;99.90
61807;DHT22;47726;52.766;6.606;2023-04-15T10:55:13;10.50;99.90
61807;DHT22;47726;52.766;6.606;2023-04-15T10:57:42;10.50;99.90
61807;DHT22;47726;52.766;6.606;2023-04-15T11:00:11;10.50;99.90
61807;DHT22;47726;52.766;6.606;2023-04-15T11:02:56;10.60;99.90
61807;DHT22;47726;52.766;6.606;2023-04-15T11:08:07;10.60;99.90
61807;DHT22;47726;52.766;6.606;2023-04-15T11:15:42;10.50;99.90
61807;DHT22;47726;52.766;6.606;2023-04-15T11:18:16;10.40;99.90
61807;DHT22;47726;52.766;6.606;2023-04-15T11:23:37;10.30;99.90
61807;DHT22;47726;52.766;6.606;2023-04-15T11:26:04;10.30;99.90
61807;DHT22;47726;52.766;6.606;2023-04-15T11:28:31;10.30;99.90
61807;DHT22;47726;52.766;6.606;2023-04-15T11:30:57;10.30;99.90
61807;DHT22;47726;52.766;6.606;2023-04-15T11:33:24;10.30;99.90
61807;DHT22;47726;52.766;6.606;2023-04-15T11:35:51;10.30;99.90
61807;DHT22;47726;52.766;6.606;2023-04-15T11:38:18;10.30;99.90
61807;DHT22;47726;52.766;6.606;2023-04-15T11:40:44;10.30;99.90
61807;DHT22;47726;52.766;6.606;2023-04-15T11:45:54;10.30;99.90
61807;DHT22;47726;52.766;6.606;2023-04-15T11:48:42;10.40;99.90
61807;DHT22;47726;52.766;6.606;2023-04-15T11:51:08;10.30;99.90
61807;DHT22;47726;52.766;6.606;2023-04-15T11:53:43;10.30;99.90
61807;DHT22;47726;52.766;6.606;2023-04-15T11:56:18;10.30;99.90
61807;DHT22;47726;52.766;6.606;2023-04-15T11:58:44;10.30;99.90
61807;DHT22;47726;52.766;6.606;2023-04-15T12:01:11;10.30;99.90
61807;DHT22;47726;52.766;6.606;2023-04-15T12:11:48;10.40;99.90
61807;DHT22;47726;52.766;6.606;2023-04-15T12:16:54;10.30;99.90
61807;DHT22;47726;52.766;6.606;2023-04-15T12:19:30;10.30;99.90
61807;DHT22;47726;52.766;6.606;2023-04-15T12:22:13;10.30;99.90
61807;DHT22;47726;52.766;6.606;2023-04-15T12:24:42;10.40;99.90
61807;DHT22;47726;52.766;6.606;2023-04-15T12:27:13;10.40;99.90
61807;DHT22;47726;52.766;6.606;2023-04-15T12:29:40;10.40;99.90
61807;DHT22;47726;52.766;6.606;2023-04-15T12:32:08;10.40;99.90
61807;DHT22;47726;52.766;6.606;2023-04-15T12:34:39;10.40;99.90
61807;DHT22;47726;52.766;6.606;2023-04-15T12:37:07;10.40;99.90
61807;DHT22;47726;52.766;6.606;2023-04-15T12:39:38;10.40;99.90
61807;DHT22;47726;52.766;6.606;2023-04-15T12:42:05;10.40;99.90
61807;DHT22;47726;52.766;6.606;2023-04-15T12:44:32;10.50;99.90
61807;DHT22;47726;52.766;6.606;2023-04-15T12:46:57;10.40;99.90
61807;DHT22;47726;52.766;6.606;2023-04-15T12:49:24;10.50;99.90
61807;DHT22;47726;52.766;6.606;2023-04-15T12:51:52;10.50;99.90
61807;DHT22;47726;52.766;6.606;2023-04-15T12:54:19;10.50;99.90
61807;DHT22;47726;52.766;6.606;2023-04-15T12:56:45;10.50;99.90
61807;DHT22;47726;52.766;6.606;2023-04-15T12:59:12;10.50;99.90
61807;DHT22;47726;52.766;6.606;2023-04-15T13:01:38;10.50;99.90
61807;DHT22;47726;52.766;6.606;2023-04-15T13:04:05;10.40;99.90
61807;DHT22;47726;52.766;6.606;2023-04-15T13:06:30;10.40;99.90
61807;DHT22;47726;52.766;6.606;2023-04-15T13:08:58;10.40;99.90
61807;DHT22;47726;52.766;6.606;2023-04-15T13:11:26;10.40;99.90
61807;DHT22;47726;52.766;6.606;2023-04-15T13:13:51;10.40;99.90
61807;DHT22;47726;52.766;6.606;2023-04-15T13:16:17;10.40;99.90
61807;DHT22;47726;52.766;6.606;2023-04-15T13:18:43;10.30;99.90
61807;DHT22;47726;52.766;6.606;2023-04-15T13:21:11;10.30;99.90
61807;DHT22;47726;52.766;6.606;2023-04-15T13:23:37;10.30;99.90
61807;DHT22;47726;52.766;6.606;2023-04-15T13:26:02;10.20;99.90
61807;DHT22;47726;52.766;6.606;2023-04-15T13:28:28;10.30;99.90
61807;DHT22;47726;52.766;6.606;2023-04-15T13:30:54;10.30;99.90
61807;DHT22;47726;52.766;6.606;2023-04-15T13:33:19;10.20;99.90
61807;DHT22;47726;52.766;6.606;2023-04-15T13:35:45;10.20;99.90
61807;DHT22;47726;52.766;6.606;2023-04-15T13:38:10;10.20;99.90
61807;DHT22;47726;52.766;6.606;2023-04-15T13:40:36;10.10;99.90
61807;DHT22;47726;52.766;6.606;2023-04-15T13:43:02;10.10;99.90
61807;DHT22;47726;52.766;6.606;2023-04-15T13:45:28;10.20;99.90
61807;DHT22;47726;52.766;6.606;2023-04-15T13:47:54;10.10;99.90
61807;DHT22;47726;52.766;6.606;2023-04-15T13:50:20;10.10;99.90
61807;DHT22;47726;52.766;6.606;2023-04-15T13:52:46;10.10;99.90
61807;DHT22;47726;52.766;6.606;2023-04-15T13:55:11;10.10;99.90
61807;DHT22;47726;52.766;6.606;2023-04-15T13:57:37;10.10;99.90
61807;DHT22;47726;52.766;6.606;2023-04-15T14:00:03;10.10;99.90
61807;DHT22;47726;52.766;6.606;2023-04-15T14:02:29;10.10;99.90
61807;DHT22;47726;52.766;6.606;2023-04-15T14:04:55;10.00;99.90
61807;DHT22;47726;52.766;6.606;2023-04-15T14:07:20;10.00;99.90
61807;DHT22;47726;52.766;6.606;2023-04-15T14:09:46;10.00;99.90
61807;DHT22;47726;52.766;6.606;2023-04-15T14:12:12;10.00;99.90
61807;DHT22;47726;52.766;6.606;2023-04-15T14:14:39;10.00;99.90
61807;DHT22;47726;52.766;6.606;2023-04-15T14:17:04;10.00;99.90
61807;DHT22;47726;52.766;6.606;2023-04-15T14:19:30;9.90;99.90
61807;DHT22;47726;52.766;6.606;2023-04-15T14:21:56;9.90;99.90
61807;DHT22;47726;52.766;6.606;2023-04-15T14:24:22;10.00;99.90
61807;DHT22;47726;52.766;6.606;2023-04-15T14:26:47;10.00;99.90
61807;DHT22;47726;52.766;6.606;2023-04-15T14:29:13;10.00;99.90
61807;DHT22;47726;52.766;6.606;2023-04-15T14:31:39;10.00;99.90
61807;DHT22;47726;52.766;6.606;2023-04-15T14:34:04;10.00;99.90
61807;DHT22;47726;52.766;6.606;2023-04-15T14:36:30;10.00;99.90
61807;DHT22;47726;52.766;6.606;2023-04-15T14:38:56;9.90;99.90
61807;DHT22;47726;52.766;6.606;2023-04-15T14:41:22;9.90;99.90
61807;DHT22;47726;52.766;6.606;2023-04-15T14:43:48;9.80;99.90
61807;DHT22;47726;52.766;6.606;2023-04-15T14:46:14;9.90;99.90
61807;DHT22;47726;52.766;6.606;2023-04-15T14:48:40;9.80;99.90
61807;DHT22;47726;52.766;6.606;2023-04-15T14:51:06;9.80;99.90
61807;DHT22;47726;52.766;6.606;2023-04-15T14:53:32;9.80;99.90
61807;DHT22;47726;52.766;6.606;2023-04-15T14:55:57;9.80;99.90
61807;DHT22;47726;52.766;6.606;2023-04-15T14:58:23;9.70;99.90
61807;DHT22;47726;52.766;6.606;2023-04-15T15:00:48;9.70;99.90
61807;DHT22;47726;52.766;6.606;2023-04-15T15:03:14;9.70;99.90
61807;DHT22;47726;52.766;6.606;2023-04-15T15:05:45;9.60;99.90
61807;DHT22;47726;52.766;6.606;2023-04-15T15:08:12;9.60;99.90
61807;DHT22;47726;52.766;6.606;2023-04-15T15:10:38;9.60;99.90
61807;DHT22;47726;52.766;6.606;2023-04-15T15:13:08;9.60;99.90
61807;DHT22;47726;52.766;6.606;2023-04-15T15:15:36;9.60;99.90
61807;DHT22;47726;52.766;6.606;2023-04-15T15:18:01;9.60;99.90
61807;DHT22;47726;52.766;6.606;2023-04-15T15:20:27;9.60;99.90
61807;DHT22;47726;52.766;6.606;2023-04-15T15:22:53;9.60;99.90
61807;DHT22;47726;52.766;6.606;2023-04-15T15:25:19;9.50;99.90
61807;DHT22;47726;52.766;6.606;2023-04-15T15:27:45;9.50;99.90
61807;DHT22;47726;52.766;6.606;2023-04-15T15:30:11;9.50;99.90
61807;DHT22;47726;52.766;6.606;2023-04-15T15:32:41;9.50;99.90
61807;DHT22;47726;52.766;6.606;2023-04-15T15:35:07;9.50;99.90
61807;DHT22;47726;52.766;6.606;2023-04-15T15:37:34;9.50;99.90
61807;DHT22;47726;52.766;6.606;2023-04-15T15:40:00;9.50;99.90
61807;DHT22;47726;52.766;6.606;2023-04-15T15:42:25;9.50;99.90
61807;DHT22;47726;52.766;6.606;2023-04-15T15:44:51;9.40;99.90
61807;DHT22;47726;52.766;6.606;2023-04-15T15:47:20;9.40;99.90
61807;DHT22;47726;52.766;6.606;2023-04-15T15:49:46;9.40;99.90
61807;DHT22;47726;52.766;6.606;2023-04-15T15:52:12;9.40;99.90
61807;DHT22;47726;52.766;6.606;2023-04-15T15:54:39;9.40;99.90
61807;DHT22;47726;52.766;6.606;2023-04-15T15:57:04;9.30;99.90
61807;DHT22;47726;52.766;6.606;2023-04-15T15:59:30;9.30;99.90
61807;DHT22;47726;52.766;6.606;2023-04-15T16:01:57;9.30;99.90
61807;DHT22;47726;52.766;6.606;2023-04-15T16:04:23;9.30;99.90
61807;DHT22;47726;52.766;6.606;2023-04-15T16:06:49;9.30;99.90